Meath Environmental Platform

Observations for Trim Market St

Time AQI Temp °C Hum % Pres Pa CO μg/m³ H₂S μg/m³ NO μg/m³ NO₂ μg/m³ O₃ μg/m³ SO₂ μg/m³ PM1 μg/m³ PM2.5 μg/m³ PM10 μg/m³
Monday 13 July 2026
14:28 1 34 31 66,309 0 0 0 0 18.4 0 1.43 4.36 4.79
14:27 1 33.9 31 66,286 0 0 0 0 29.81 0 0.71 4.34 4.78
14:22 1 33.6 31 66,276 0 0 0 0 33.38 0 0.71 4.34 4.77
14:21 1 33.6 31 66,282 0 0 0 0 17.14 0 1.43 5.41 5.81
14:19 1 33.5 32 66,258 0 0 0 0 17.9 0 0.71 4.86 4.96
14:18 1 33.5 32 66,260 0 0 0 0 31.55 0 0.71 4.31 4.74
14:07 1 32.6 33 66,151 0 0 0 0 31.46 0 1.43 4.78 5.26
14:06 1 32.5 34 66,157 0 0 0 0 25.33 0 2.14 5.85 6.43
14:05 1 32.4 34 66,131 0 0 0 0 43.64 0 1.43 4.76 5
14:04 1 32.3 34 66,102 0 0 0 0 22.05 0 0.71 4.21 5
14:03 1 32.3 34 66,096 0 0 0 0 22.59 0 2.14 5.28 5.81
14:02 1 32.2 34 66,115 0 0 0 0 31.66 0 2.14 5.82 6.69
14:01 1 32.2 34 66,117 0 0 0 0 35.2 0 2.85 5.29 5.82
14:00 1 32.3 34 66,121 0 0 0 0 35.26 0 2.85 5.85 6.44
13:59 1 32.3 33 66,123 0 0 0 0 27.4 0 2.85 5.87 6.45
13:58 1 32.5 33 66,129 0 0 0 0 26.93 0 1.43 4.8 4.99
13:57 1 32.6 33 66,135 0 0 0 0 21.03 0 1.43 4.8 5.28
13:56 1 32.7 33 66,139 0 0 0 0 16.65 0 2.14 4.8 5.83
13:55 1 32.9 33 66,169 0 0 0 0 11.98 0 2.14 5.33 6.68
13:54 1 33 33 66,176 0 0 0 0 20.36 0 2.85 6.93 7.52